Impacts TAF Board
For situational awareness. Not to be used for flight planning purposes.
IDs:

KGUP - Gallup Muni, NM, US

Issued at 1120 UTC 30 Oct 2020
Updated at 1546 UTC 30 Oct 2020
Potential Impact None Slight Moderate High
Time1453Z 30/16Z 30/17Z 30/18Z 30/19Z 30/20Z 30/21Z 30/22Z 30/23Z 31/00Z 31/01Z 31/02Z 31/03Z 31/04Z>>
Type OBS PRVL PRVL PRVL PRVL PRVL PRVL PRVL PRVL PRVL PRVL PRVL PRVL PRVL
VIS 10 >6 >6 >6 >6 >6 >6 >6 >6 >6 >6 >6 >6 >6
CIG -- -- -- -- -- -- -- -- -- -- -- -- -- --
Cover CLR SCT SCT SCT SCT SCT SCT SCT SCT SCT SCT SCT SCT SCT
FltCat VFR VFR VFR VFR VFR VFR VFR VFR VFR VFR VFR VFR VFR VFR
WX -- -- -- -- -- -- -- -- -- -- -- -- -- --
WDir VRB VRB VRB VRB VRB VRB VRB VRB VRB VRB VRB VRB VRB VRB
WSpd 0 6 6 6 6 6 6 6 6 6 6 6 6 6
WGst -- -- -- -- -- -- -- -- -- -- -- -- -- --
Raw TAF
KGUP 301120Z 3012/3112 VRB06KT P6SM SCT250

Raw METAR
KGUP 301453Z AUTO 00000KT 10SM CLR 01/M01 A3033 RMK AO2 SLP264 I3001 T00061011 53004
KGUP 301353Z AUTO 00000KT 10SM CLR M03/M04 A3032 RMK AO2 SLP258 T10281044
KGUP 301253Z AUTO 00000KT 10SM CLR M03/M04 A3032 RMK AO2 SLP255 I1001 T10281039

METAR Board
Radar Display
Forecast Discussion
For situational awareness. Not to be used for flight planning purposes.